createdAt,value
2023-04-25T00:02:17.338Z,100644.22
2023-04-25T00:04:45.641Z,100646.80
2023-04-25T00:07:13.235Z,100647.31
2023-04-25T00:09:40.245Z,100645.22
2023-04-25T00:12:07.218Z,100642.05
2023-04-25T00:14:34.635Z,100641.80
2023-04-25T00:17:02.018Z,100645.18
2023-04-25T00:19:29.226Z,100642.18
2023-04-25T00:21:56.176Z,100639.96
2023-04-25T00:24:23.120Z,100640.11
2023-04-25T00:26:50.188Z,100639.64
2023-04-25T00:29:17.319Z,100640.81
2023-04-25T00:31:44.638Z,100643.98
2023-04-25T00:34:11.650Z,100640.52
2023-04-25T00:36:38.590Z,100642.29
2023-04-25T00:39:05.510Z,100641.48
2023-04-25T00:41:33.271Z,100641.02
2023-04-25T00:44:00.159Z,100630.65
2023-04-25T00:46:27.243Z,100627.94
2023-04-25T00:48:54.137Z,100621.25
2023-04-25T00:51:21.554Z,100620.78
2023-04-25T00:53:49.751Z,100616.99
2023-04-25T00:56:16.944Z,100614.41
2023-04-25T00:58:43.896Z,100617.39
2023-04-25T01:01:11.232Z,100617.45
2023-04-25T01:03:41.324Z,100616.98
2023-04-25T01:06:09.880Z,100613.02
2023-04-25T01:08:38.188Z,100612.19
2023-04-25T01:11:05.886Z,100607.36
2023-04-25T01:13:33.529Z,100607.41
2023-04-25T01:16:00.898Z,100606.05
2023-04-25T01:18:28.482Z,100608.31
2023-04-25T01:20:56.098Z,100605.46
2023-04-25T01:23:23.640Z,100606.58
2023-04-25T01:25:50.899Z,100605.98
2023-04-25T01:28:17.841Z,100605.02
2023-04-25T01:30:44.833Z,100602.77
2023-04-25T01:33:12.601Z,100599.33
2023-04-25T01:35:40.879Z,100602.62
2023-04-25T01:38:07.831Z,100600.22
2023-04-25T01:40:35.180Z,100598.56
2023-04-25T01:43:02.072Z,100595.48
2023-04-25T01:45:29.288Z,100591.47
2023-04-25T01:47:59.732Z,100588.48
2023-04-25T01:50:26.730Z,100591.06
2023-04-25T01:52:54.995Z,100589.18
2023-04-25T01:55:22.266Z,100584.17
2023-04-25T01:58:01.010Z,100580.98
2023-04-25T02:00:44.204Z,100580.28
2023-04-25T02:03:11.513Z,100579.02
2023-04-25T02:05:41.296Z,100576.21
2023-04-25T02:08:10.314Z,100578.04
2023-04-25T02:10:37.577Z,100573.13
2023-04-25T02:13:25.218Z,100567.91
2023-04-25T02:15:55.281Z,100569.50
2023-04-25T02:18:22.407Z,100569.29
2023-04-25T02:20:49.419Z,100570.93
2023-04-25T02:23:16.454Z,100568.59
2023-04-25T02:25:43.396Z,100572.05
2023-04-25T02:28:10.786Z,100571.67
2023-04-25T02:30:37.956Z,100573.28
2023-04-25T02:33:05.799Z,100569.14
2023-04-25T02:35:32.707Z,100571.40
2023-04-25T02:37:59.887Z,100569.80
2023-04-25T02:40:26.850Z,100570.79
2023-04-25T02:42:54.928Z,100566.90
2023-04-25T02:45:21.947Z,100567.14
2023-04-25T02:47:48.996Z,100567.70
2023-04-25T02:50:16.018Z,100572.46
2023-04-25T02:52:43.035Z,100571.14
2023-04-25T02:55:14.269Z,100570.98
2023-04-25T02:57:44.682Z,100573.84
2023-04-25T03:00:14.734Z,100571.88
2023-04-25T03:02:41.902Z,100572.12
2023-04-25T03:05:09.334Z,100572.45
2023-04-25T03:07:37.440Z,100569.34
2023-04-25T03:10:04.776Z,100570.85
2023-04-25T03:12:32.150Z,100572.52
2023-04-25T03:14:59.037Z,100572.58
2023-04-25T03:17:26.624Z,100574.43
2023-04-25T03:19:53.557Z,100571.83
2023-04-25T03:22:20.633Z,100573.66
2023-04-25T03:24:47.731Z,100572.84
2023-04-25T03:27:14.778Z,100567.23
2023-04-25T03:29:41.996Z,100566.84
2023-04-25T03:32:09.847Z,100565.84
2023-04-25T03:34:36.909Z,100564.03
2023-04-25T03:37:04.201Z,100564.89
2023-04-25T03:39:32.763Z,100564.12
2023-04-25T03:41:59.663Z,100562.39
2023-04-25T03:44:28.815Z,100562.87
2023-04-25T03:46:55.873Z,100560.23
2023-04-25T03:49:23.888Z,100560.64
2023-04-25T03:52:11.032Z,100554.40
2023-04-25T03:54:39.694Z,100554.79
2023-04-25T03:57:13.005Z,100554.26
2023-04-25T03:59:40.658Z,100553.59
2023-04-25T04:02:08.978Z,100555.64
2023-04-25T04:04:37.186Z,100554.77
2023-04-25T04:07:04.506Z,100552.67
2023-04-25T04:09:35.198Z,100550.05
2023-04-25T04:12:06.697Z,100546.46
2023-04-25T04:14:34.454Z,100544.70
2023-04-25T04:17:01.422Z,100543.55
2023-04-25T04:19:29.417Z,100544.76
2023-04-25T04:22:10.512Z,100544.46
2023-04-25T04:24:37.791Z,100546.52
2023-04-25T04:27:07.368Z,100543.93
2023-04-25T04:29:37.668Z,100545.73
2023-04-25T04:32:13.513Z,100545.49
2023-04-25T04:34:41.715Z,100539.05
2023-04-25T04:37:10.204Z,100539.66
2023-04-25T04:39:37.435Z,100540.14
2023-04-25T04:42:11.958Z,100535.73
2023-04-25T04:44:47.322Z,100534.55
2023-04-25T04:47:26.360Z,100535.30
2023-04-25T04:50:16.682Z,100534.21
2023-04-25T04:53:12.768Z,100537.17
2023-04-25T04:55:57.953Z,100531.70
2023-04-25T04:58:51.534Z,100532.88
2023-04-25T05:01:36.979Z,100534.25
2023-04-25T05:04:23.657Z,100532.30
2023-04-25T05:07:16.572Z,100533.32
2023-04-25T05:10:04.451Z,100534.08
2023-04-25T05:12:41.388Z,100534.12
2023-04-25T05:15:13.987Z,100532.77
2023-04-25T05:18:00.025Z,100532.46
2023-04-25T05:20:47.144Z,100528.66
2023-04-25T05:23:34.763Z,100527.14
2023-04-25T05:26:21.159Z,100528.16
2023-04-25T05:29:08.279Z,100523.27
2023-04-25T05:31:55.504Z,100513.31
2023-04-25T05:34:22.546Z,100512.88
2023-04-25T05:37:12.364Z,100513.44
2023-04-25T05:39:51.045Z,100510.95
2023-04-25T05:42:31.508Z,100508.85
2023-04-25T05:45:07.574Z,100507.05
2023-04-25T05:47:47.290Z,100508.29
2023-04-25T05:50:22.250Z,100509.64
2023-04-25T05:52:53.012Z,100511.48
2023-04-25T05:55:49.281Z,100507.36
2023-04-25T05:58:27.576Z,100507.41
2023-04-25T06:00:55.870Z,100503.70
2023-04-25T06:03:23.801Z,100501.31
2023-04-25T06:05:51.590Z,100497.31
2023-04-25T06:08:20.690Z,100497.30
2023-04-25T06:10:48.289Z,100494.84
2023-04-25T06:13:15.894Z,100493.43
2023-04-25T06:15:43.421Z,100490.51
2023-04-25T06:18:11.010Z,100494.40
2023-04-25T06:20:37.980Z,100492.16
2023-04-25T06:23:05.286Z,100489.77
2023-04-25T06:25:55.192Z,100489.70
2023-04-25T06:28:22.739Z,100491.06
2023-04-25T06:30:49.826Z,100496.20
2023-04-25T06:33:18.680Z,100492.90
2023-04-25T06:35:46.241Z,100494.69
2023-04-25T06:38:14.229Z,100497.98
2023-04-25T06:40:43.922Z,100496.28
2023-04-25T06:43:11.183Z,100496.45
2023-04-25T06:45:58.421Z,100490.73
2023-04-25T06:48:27.940Z,100489.77
2023-04-25T06:50:55.223Z,100492.20
2023-04-25T06:53:22.292Z,100492.05
2023-04-25T06:55:52.752Z,100494.91
2023-04-25T06:58:23.218Z,100494.60
2023-04-25T07:00:55.325Z,100497.09
2023-04-25T07:03:24.557Z,100502.70
2023-04-25T07:05:53.574Z,100498.67
2023-04-25T07:08:21.853Z,100503.91
2023-04-25T07:10:50.049Z,100499.27
2023-04-25T07:13:17.922Z,100501.18
2023-04-25T07:15:44.947Z,100502.98
2023-04-25T07:18:12.195Z,100499.78
2023-04-25T07:20:39.377Z,100504.59
2023-04-25T07:23:07.430Z,100504.16
2023-04-25T07:25:34.324Z,100506.13
2023-04-25T07:28:01.547Z,100500.25
2023-04-25T07:30:28.644Z,100504.20
2023-04-25T07:32:56.485Z,100498.72
2023-04-25T07:35:23.641Z,100501.70
2023-04-25T07:37:50.838Z,100494.29
2023-04-25T07:40:19.896Z,100493.34
2023-04-25T07:42:50.314Z,100491.34
2023-04-25T07:45:21.632Z,100490.52
2023-04-25T07:47:48.918Z,100491.10
2023-04-25T07:50:16.524Z,100492.25
2023-04-25T07:52:43.685Z,100495.30
2023-04-25T07:55:19.360Z,100490.73
2023-04-25T07:57:57.249Z,100495.57
2023-04-25T08:00:24.359Z,100491.77
2023-04-25T08:02:52.549Z,100486.11
2023-04-25T08:05:22.775Z,100488.88
2023-04-25T08:07:55.807Z,100486.77
2023-04-25T08:10:23.675Z,100491.05
2023-04-25T08:12:50.734Z,100490.81
2023-04-25T08:15:17.649Z,100494.89
2023-04-25T08:17:45.216Z,100493.41
2023-04-25T08:20:12.694Z,100497.70
2023-04-25T08:22:40.682Z,100496.47
2023-04-25T08:25:34.820Z,100496.91
2023-04-25T08:28:03.494Z,100496.79
2023-04-25T08:30:30.740Z,100496.99
2023-04-25T08:32:58.396Z,100492.79
2023-04-25T08:35:57.713Z,100494.48
2023-04-25T08:38:25.150Z,100496.59
2023-04-25T08:40:52.144Z,100496.99
2023-04-25T08:43:20.729Z,100496.95
2023-04-25T08:45:47.687Z,100499.71
2023-04-25T08:48:32.480Z,100492.38
2023-04-25T08:51:00.359Z,100498.20
2023-04-25T08:53:28.802Z,100491.70
2023-04-25T08:55:59.325Z,100487.85
2023-04-25T08:58:26.241Z,100490.61
2023-04-25T09:00:53.395Z,100488.77
2023-04-25T09:03:21.975Z,100483.09
2023-04-25T09:05:49.346Z,100484.83
2023-04-25T09:08:16.249Z,100482.98
2023-04-25T09:10:43.444Z,100478.98
2023-04-25T09:13:15.475Z,100479.30
2023-04-25T09:16:19.428Z,100475.11
2023-04-25T09:18:56.937Z,100477.40
2023-04-25T09:21:23.791Z,100478.71
2023-04-25T09:23:52.233Z,100479.95
2023-04-25T09:26:21.491Z,100478.81
2023-04-25T09:28:48.791Z,100475.16
2023-04-25T09:31:26.581Z,100475.46
2023-04-25T09:34:01.450Z,100476.58
2023-04-25T09:36:30.339Z,100472.65
2023-04-25T09:39:07.276Z,100472.61
2023-04-25T09:41:38.277Z,100469.10
2023-04-25T09:44:05.449Z,100462.37
2023-04-25T09:46:38.513Z,100464.91
2023-04-25T09:49:08.794Z,100463.38
2023-04-25T09:51:55.204Z,100465.66
2023-04-25T09:54:22.384Z,100465.23
2023-04-25T09:56:54.720Z,100461.58
2023-04-25T09:59:22.937Z,100459.30
2023-04-25T10:01:51.072Z,100460.59
2023-04-25T10:04:26.712Z,100460.98
2023-04-25T10:07:00.810Z,100457.84
2023-04-25T10:09:30.001Z,100454.58
2023-04-25T10:11:57.138Z,100453.55
2023-04-25T10:14:24.298Z,100450.05
2023-04-25T10:16:54.110Z,100448.65
2023-04-25T10:19:21.119Z,100449.86
2023-04-25T10:21:53.089Z,100446.35
2023-04-25T10:24:20.163Z,100444.23
2023-04-25T10:26:47.935Z,100446.00
2023-04-25T10:29:23.537Z,100447.05
2023-04-25T10:31:50.584Z,100444.46
2023-04-25T10:34:18.166Z,100446.34
2023-04-25T10:36:50.797Z,100444.48
2023-04-25T10:39:25.545Z,100447.20
2023-04-25T10:41:58.568Z,100445.60
2023-04-25T10:44:31.553Z,100449.80
2023-04-25T10:46:59.804Z,100443.48
2023-04-25T10:49:31.518Z,100451.70
2023-04-25T10:52:15.303Z,100445.34
2023-04-25T10:55:03.332Z,100446.81
2023-04-25T10:57:40.891Z,100443.45
2023-04-25T11:00:13.538Z,100440.54
2023-04-25T11:02:52.543Z,100440.66
2023-04-25T11:05:47.319Z,100442.42
2023-04-25T11:08:34.051Z,100444.55
2023-04-25T11:11:01.043Z,100440.19
2023-04-25T11:13:31.166Z,100438.28
2023-04-25T11:16:07.170Z,100433.55
2023-04-25T11:18:42.389Z,100432.77
2023-04-25T11:21:10.124Z,100428.64
2023-04-25T11:23:37.405Z,100423.48
2023-04-25T11:26:04.632Z,100424.84
2023-04-25T11:28:31.692Z,100423.48
2023-04-25T11:30:58.664Z,100422.42
2023-04-25T11:33:26.303Z,100423.98
2023-04-25T11:35:59.657Z,100418.95
2023-04-25T11:38:27.332Z,100411.94
2023-04-25T11:40:55.934Z,100411.38
2023-04-25T11:43:23.310Z,100406.64
2023-04-25T11:45:51.569Z,100401.80
2023-04-25T11:48:19.784Z,100401.77
2023-04-25T11:50:48.873Z,100402.04
2023-04-25T11:53:18.480Z,100397.73
2023-04-25T11:55:45.905Z,100400.22
2023-04-25T11:58:14.310Z,100394.11
2023-04-25T12:00:42.656Z,100392.71
2023-04-25T12:03:18.795Z,100390.55
2023-04-25T12:05:46.374Z,100389.05
2023-04-25T12:08:15.916Z,100386.73
2023-04-25T12:10:44.233Z,100386.05
2023-04-25T12:13:24.537Z,100379.48
2023-04-25T12:15:51.945Z,100380.67
2023-04-25T12:18:24.144Z,100376.24
2023-04-25T12:20:52.708Z,100373.19
2023-04-25T12:23:27.055Z,100374.26
2023-04-25T12:25:53.954Z,100372.45
2023-04-25T12:28:25.835Z,100369.80
2023-04-25T12:31:03.649Z,100367.42
2023-04-25T12:33:34.625Z,100365.13
2023-04-25T12:36:05.117Z,100368.42
2023-04-25T12:38:41.064Z,100368.19
2023-04-25T12:41:08.445Z,100363.88
2023-04-25T12:43:36.041Z,100359.60
2023-04-25T12:46:03.049Z,100360.38
2023-04-25T12:48:32.321Z,100356.85
2023-04-25T12:51:00.415Z,100353.73
2023-04-25T12:53:28.393Z,100348.50
2023-04-25T12:55:56.953Z,100342.60
2023-04-25T12:58:25.898Z,100340.84
2023-04-25T13:00:53.976Z,100341.96
2023-04-25T13:03:22.851Z,100341.34
2023-04-25T13:05:51.996Z,100340.02
2023-04-25T13:08:20.468Z,100334.66
2023-04-25T13:10:49.079Z,100337.17
2023-04-25T13:13:17.785Z,100335.42
2023-04-25T13:15:45.541Z,100332.70
2023-04-25T13:18:13.372Z,100330.44
2023-04-25T13:20:41.158Z,100332.93
2023-04-25T13:23:08.645Z,100331.98
2023-04-25T13:25:36.087Z,100331.94
2023-04-25T13:28:03.767Z,100325.46
2023-04-25T13:30:31.173Z,100321.79
2023-04-25T13:33:03.706Z,100319.06
2023-04-25T13:35:31.101Z,100314.69
2023-04-25T13:37:58.295Z,100319.31
2023-04-25T13:40:25.907Z,100312.00
2023-04-25T13:42:53.577Z,100312.44
2023-04-25T13:45:21.545Z,100315.52
2023-04-25T13:47:49.217Z,100313.31
2023-04-25T13:50:16.843Z,100308.88
2023-04-25T13:52:44.036Z,100305.45
2023-04-25T13:55:11.567Z,100294.16
2023-04-25T13:57:41.126Z,100291.52
2023-04-25T14:00:09.755Z,100292.30
2023-04-25T14:02:38.251Z,100287.30
2023-04-25T14:05:06.361Z,100283.20
2023-04-25T14:07:35.758Z,100285.84
2023-04-25T14:10:08.018Z,100283.57
2023-04-25T14:12:36.124Z,100283.92
2023-04-25T14:15:04.257Z,100280.34
2023-04-25T14:17:32.302Z,100279.55
2023-04-25T14:20:00.197Z,100275.10
2023-04-25T14:22:27.834Z,100275.93
2023-04-25T14:24:56.161Z,100275.32
2023-04-25T14:27:23.714Z,100280.48
2023-04-25T14:29:51.633Z,100280.85
2023-04-25T14:32:19.487Z,100281.42
2023-04-25T14:34:48.188Z,100276.19
2023-04-25T14:37:16.277Z,100272.16
2023-04-25T14:39:45.863Z,100262.79
2023-04-25T14:42:14.054Z,100262.42
2023-04-25T14:44:41.546Z,100258.36
2023-04-25T14:47:09.861Z,100258.38
2023-04-25T14:49:37.491Z,100252.77
2023-04-25T14:52:05.089Z,100247.17
2023-04-25T14:54:33.217Z,100243.11
2023-04-25T14:57:01.764Z,100238.91
2023-04-25T14:59:29.853Z,100242.69
2023-04-25T15:01:59.580Z,100234.39
2023-04-25T15:04:27.697Z,100231.77
2023-04-25T15:06:56.073Z,100226.89
2023-04-25T15:09:25.022Z,100223.50
2023-04-25T15:11:52.482Z,100224.77
2023-04-25T15:14:20.008Z,100226.55
2023-04-25T15:16:47.601Z,100224.33
2023-04-25T15:19:15.890Z,100224.23
2023-04-25T15:21:43.739Z,100218.25
2023-04-25T15:24:12.300Z,100218.60
2023-04-25T15:26:40.733Z,100216.11
2023-04-25T15:29:08.312Z,100209.59
2023-04-25T15:31:36.285Z,100212.48
2023-04-25T15:34:04.432Z,100210.52
2023-04-25T15:36:33.598Z,100208.96
2023-04-25T15:39:01.460Z,100206.05
2023-04-25T15:41:29.869Z,100204.42
2023-04-25T15:43:58.046Z,100207.54
2023-04-25T15:46:25.847Z,100204.92
2023-04-25T15:48:53.520Z,100203.48
2023-04-25T15:51:21.404Z,100199.25
2023-04-25T15:53:49.512Z,100198.70
2023-04-25T15:56:17.887Z,100197.63
2023-04-25T15:58:45.704Z,100192.88
2023-04-25T16:01:13.953Z,100192.16
2023-04-25T16:03:41.692Z,100192.24
2023-04-25T16:06:09.737Z,100192.16
2023-04-25T16:08:37.459Z,100193.33
2023-04-25T16:11:06.141Z,100191.85
2023-04-25T16:13:35.438Z,100192.70
2023-04-25T16:16:03.313Z,100191.20
2023-04-25T16:18:31.026Z,100190.61
2023-04-25T16:20:58.416Z,100189.46
2023-04-25T16:23:26.305Z,100184.83
2023-04-25T16:25:55.323Z,100182.54
2023-04-25T16:28:23.571Z,100182.48
2023-04-25T16:30:51.901Z,100180.02
2023-04-25T16:33:19.960Z,100179.54
2023-04-25T16:35:49.246Z,100176.70
2023-04-25T16:38:17.067Z,100175.61
2023-04-25T16:40:45.225Z,100177.86
2023-04-25T16:43:14.028Z,100171.29
2023-04-25T16:45:41.927Z,100173.41
2023-04-25T16:48:09.733Z,100176.02
2023-04-25T16:50:38.410Z,100175.86
2023-04-25T16:53:06.499Z,100174.04
2023-04-25T16:55:34.516Z,100172.63
2023-04-25T16:58:02.813Z,100171.34
2023-04-25T17:00:31.009Z,100170.95
2023-04-25T17:02:59.860Z,100166.88
2023-04-25T17:05:27.881Z,100165.52
2023-04-25T17:07:56.871Z,100167.73
2023-04-25T17:10:25.963Z,100161.65
2023-04-25T17:12:57.722Z,100161.15
2023-04-25T17:15:25.774Z,100164.66
2023-04-25T17:17:53.979Z,100165.25
2023-04-25T17:20:22.324Z,100166.22
2023-04-25T17:23:10.232Z,100174.58
2023-04-25T17:25:39.571Z,100173.69
2023-04-25T17:28:07.521Z,100175.66
2023-04-25T17:30:36.002Z,100174.00
2023-04-25T17:33:06.620Z,100177.91
2023-04-25T17:35:35.021Z,100178.73
2023-04-25T17:38:04.228Z,100177.23
2023-04-25T17:40:33.569Z,100180.37
2023-04-25T17:43:01.617Z,100183.25
2023-04-25T17:45:34.731Z,100179.11
2023-04-25T17:48:03.832Z,100183.76
2023-04-25T17:50:33.566Z,100183.58
2023-04-25T17:53:03.614Z,100187.56
2023-04-25T17:55:32.592Z,100186.13
2023-04-25T17:58:01.042Z,100189.44
2023-04-25T18:00:30.342Z,100190.16
2023-04-25T18:02:58.377Z,100187.14
2023-04-25T18:05:28.220Z,100186.45
2023-04-25T18:07:58.476Z,100189.79
2023-04-25T18:10:26.870Z,100190.01
2023-04-25T18:13:14.735Z,100188.21
2023-04-25T18:15:43.534Z,100191.19
2023-04-25T18:18:19.813Z,100191.13
2023-04-25T18:20:47.835Z,100186.12
2023-04-25T18:23:16.439Z,100188.55
2023-04-25T18:25:45.793Z,100188.21
2023-04-25T18:28:14.290Z,100189.83
2023-04-25T18:30:44.414Z,100189.56
2023-04-25T18:33:12.335Z,100189.17
2023-04-25T18:35:45.088Z,100188.18
2023-04-25T18:38:28.099Z,100186.68
2023-04-25T18:41:13.105Z,100179.52
2023-04-25T18:44:02.317Z,100181.23
2023-04-25T18:46:31.695Z,100185.54
2023-04-25T18:49:02.340Z,100180.83
2023-04-25T18:51:31.513Z,100182.52
2023-04-25T18:54:01.865Z,100177.70
2023-04-25T18:56:30.703Z,100180.29
2023-04-25T18:58:58.567Z,100174.98
2023-04-25T19:01:28.024Z,100175.36
2023-04-25T19:03:56.887Z,100173.82
2023-04-25T19:06:28.043Z,100173.48
2023-04-25T19:08:57.631Z,100171.62
2023-04-25T19:11:26.848Z,100173.21
2023-04-25T19:13:56.878Z,100175.94
2023-04-25T19:16:26.536Z,100171.63
2023-04-25T19:18:57.376Z,100172.20
2023-04-25T19:21:25.572Z,100170.94
2023-04-25T19:23:54.371Z,100169.70
2023-04-25T19:26:24.795Z,100163.65
2023-04-25T19:29:09.813Z,100164.25
2023-04-25T19:31:38.808Z,100161.02
2023-04-25T19:34:07.556Z,100160.77
2023-04-25T19:36:37.714Z,100164.91
2023-04-25T19:39:07.599Z,100161.26
2023-04-25T19:41:37.297Z,100156.11
2023-04-25T19:44:07.206Z,100157.85
2023-04-25T19:46:36.310Z,100158.14
2023-04-25T19:49:07.237Z,100155.77
2023-04-25T19:51:36.439Z,100151.77
2023-04-25T19:54:04.551Z,100145.65
2023-04-25T19:56:33.097Z,100143.42
2023-04-25T19:59:01.243Z,100138.65
2023-04-25T20:01:29.568Z,100140.03
2023-04-25T20:03:57.545Z,100144.11
2023-04-25T20:06:25.920Z,100140.14
2023-04-25T20:08:53.144Z,100135.52
2023-04-25T20:11:21.149Z,100134.33
2023-04-25T20:13:48.150Z,100132.96
2023-04-25T20:16:19.306Z,100132.56
2023-04-25T20:18:47.816Z,100130.40
2023-04-25T20:21:15.766Z,100124.39
2023-04-25T20:23:43.431Z,100128.09
2023-04-25T20:26:12.113Z,100126.73
2023-04-25T20:28:39.419Z,100128.45
2023-04-25T20:31:06.861Z,100125.36
2023-04-25T20:33:37.123Z,100125.64
2023-04-25T20:36:04.705Z,100125.81
2023-04-25T20:38:32.327Z,100122.57
2023-04-25T20:41:00.065Z,100120.90
2023-04-25T20:43:27.069Z,100119.83
2023-04-25T20:45:54.399Z,100119.54
2023-04-25T20:48:21.807Z,100114.98
2023-04-25T20:50:48.739Z,100111.67
2023-04-25T20:53:16.240Z,100114.88
2023-04-25T20:55:43.776Z,100116.06
2023-04-25T20:58:10.922Z,100112.95
2023-04-25T21:00:38.565Z,100111.80
2023-04-25T21:03:06.762Z,100110.33
2023-04-25T21:05:33.943Z,100109.55
2023-04-25T21:08:01.426Z,100112.30
2023-04-25T21:10:28.865Z,100111.39
2023-04-25T21:12:57.251Z,100111.92
2023-04-25T21:15:24.572Z,100116.96
2023-04-25T21:17:51.765Z,100116.26
2023-04-25T21:20:19.895Z,100116.73
2023-04-25T21:22:53.795Z,100117.84
2023-04-25T21:25:30.303Z,100116.49
2023-04-25T21:27:57.837Z,100115.19
2023-04-25T21:30:25.317Z,100115.23
2023-04-25T21:32:52.467Z,100111.06
2023-04-25T21:35:20.121Z,100113.16
2023-04-25T21:37:47.147Z,100110.27
2023-04-25T21:40:14.204Z,100105.32
2023-04-25T21:42:43.909Z,100107.14
2023-04-25T21:45:11.385Z,100102.77
2023-04-25T21:47:38.822Z,100103.36
2023-04-25T21:50:06.887Z,100099.30
2023-04-25T21:52:37.626Z,100098.06
2023-04-25T21:55:05.279Z,100094.59
2023-04-25T21:57:32.904Z,100093.36
2023-04-25T22:00:00.171Z,100089.42
2023-04-25T22:02:29.112Z,100089.73
2023-04-25T22:04:56.352Z,100088.39
2023-04-25T22:07:23.461Z,100086.95
2023-04-25T22:09:54.992Z,100081.77
2023-04-25T22:12:22.817Z,100080.46
2023-04-25T22:14:49.799Z,100080.23
2023-04-25T22:17:17.180Z,100078.23
2023-04-25T22:19:44.370Z,100078.86
2023-04-25T22:22:11.493Z,100079.70
2023-04-25T22:24:38.775Z,100081.52
2023-04-25T22:27:06.405Z,100078.19
2023-04-25T22:29:33.608Z,100071.91
2023-04-25T22:32:01.058Z,100071.88
2023-04-25T22:34:28.005Z,100072.84
2023-04-25T22:36:54.919Z,100071.74
2023-04-25T22:39:21.804Z,100064.79
2023-04-25T22:41:48.651Z,100066.46
2023-04-25T22:44:15.789Z,100065.94
2023-04-25T22:46:42.756Z,100063.64
2023-04-25T22:49:09.640Z,100062.96
2023-04-25T22:51:36.569Z,100062.11
2023-04-25T22:54:04.899Z,100056.59
2023-04-25T22:56:32.198Z,100054.53
2023-04-25T22:58:59.106Z,100053.02
2023-04-25T23:01:27.284Z,100051.66
2023-04-25T23:03:54.531Z,100052.72
2023-04-25T23:06:22.281Z,100054.62
2023-04-25T23:08:49.901Z,100052.01
2023-04-25T23:11:16.908Z,100047.58
2023-04-25T23:13:44.901Z,100051.27
2023-04-25T23:16:12.063Z,100046.62
2023-04-25T23:18:39.102Z,100051.89
2023-04-25T23:21:09.517Z,100053.05
2023-04-25T23:23:36.454Z,100044.02
2023-04-25T23:26:10.073Z,100042.88
2023-04-25T23:28:39.893Z,100041.33
2023-04-25T23:31:09.039Z,100038.80
2023-04-25T23:33:36.150Z,100037.32
2023-04-25T23:36:03.306Z,100038.34
2023-04-25T23:38:30.326Z,100035.45
2023-04-25T23:40:57.956Z,100037.19
2023-04-25T23:43:24.820Z,100033.64
2023-04-25T23:45:51.956Z,100031.45
2023-04-25T23:48:19.324Z,100029.94
2023-04-25T23:50:46.223Z,100031.69
2023-04-25T23:53:13.042Z,100030.11
2023-04-25T23:55:40.257Z,100034.11
2023-04-25T23:58:07.432Z,100030.99
